March AFB, California
Current Conditions -  °F | °C
As of 2:58 PM on Friday 31 Oct 2014 (Local Time) from KRIV Reporting Station
Few Clouds Few Clouds  
Wind Chill: 68°   Ceiling: Unl
Heat Index: 68°   Visibility: 10mi
Dew Point: 54°   Wind: 7mph
Humidity: 60%   Direction: 290°WNW
Pressure: 29.88"   Gusts: NA
Location:  33.89°N, 117.26°W
Report Text: KRIV 312158Z AUTO 29006KT 10SM FEW044 20/12 A2988 RMK AO2 SLP112 T02000120
Loading
Personal Weather Stations






























Interactive Weather Map
Tropical Storm Tracking
New forecast layout! Learn more

10-Day Weather Forecast

Advertisements
Track Severe Weather on mobile